Time;durP1;ratioP1;P1;durP2;ratioP2;P2;SDS_P1;SDS_P2;PMS_P1;PMS_P2;Temp;Humidity;BMP_temperature;BMP_pressure;BME280_temperature;BME280_humidity;BME280_pressure;Samples;Min_cycle;Max_cycle;Signal;HPM_P1;HPM_P2
2021/05/28 00:01:40;;;;;;;12.30;7.10;;;;;;;17.70;85.33;100199.63;1675191;85;21097;-70
2021/05/28 00:04:08;;;;;;;12.75;7.45;;;;;;;17.71;85.56;100203.53;1675080;85;21056;-71
2021/05/28 00:06:35;;;;;;;13.22;7.42;;;;;;;17.76;85.59;100205.56;1674930;84;21132;-70
2021/05/28 00:09:04;;;;;;;14.07;7.90;;;;;;;17.78;85.59;100203.37;1673927;85;21330;-70
2021/05/28 00:11:32;;;;;;;9.70;7.28;;;;;;;17.78;85.41;100199.22;1675115;85;21119;-71
2021/05/28 00:13:59;;;;;;;8.98;6.58;;;;;;;17.79;85.20;100206.98;1673253;85;21084;-70
2021/05/28 00:16:27;;;;;;;10.50;7.08;;;;;;;17.78;85.16;100201.98;1675159;85;21335;-73
2021/05/28 00:18:56;;;;;;;9.55;7.40;;;;;;;17.79;85.08;100198.12;1675136;85;21293;-71
2021/05/28 00:21:23;;;;;;;10.40;7.95;;;;;;;17.80;85.05;100198.42;1675092;85;21377;-71
2021/05/28 00:23:52;;;;;;;10.75;7.67;;;;;;;17.80;84.97;100198.97;1675198;85;21057;-71
2021/05/28 00:26:19;;;;;;;12.43;7.17;;;;;;;17.78;84.94;100187.30;1675056;85;21622;-74
2021/05/28 00:28:49;;;;;;;11.50;8.88;;;;;;;17.79;84.81;100198.12;1675180;85;21104;-73
2021/05/28 00:31:18;;;;;;;9.48;7.12;;;;;;;17.76;84.56;100198.62;1675076;85;21187;-72
2021/05/28 00:33:47;;;;;;;10.90;7.03;;;;;;;17.72;84.50;100193.29;1674719;85;21431;-70
2021/05/28 00:36:14;;;;;;;9.83;7.47;;;;;;;17.68;84.75;100190.17;1675045;85;21084;-71
2021/05/28 00:38:41;;;;;;;8.50;7.60;;;;;;;17.68;85.00;100186.02;1675105;85;21073;-71
2021/05/28 00:41:10;;;;;;;9.05;8.15;;;;;;;17.70;85.14;100185.77;1675146;85;21767;-70
2021/05/28 00:43:38;;;;;;;9.85;8.33;;;;;;;17.66;85.09;100179.02;1673198;85;21104;-70
2021/05/28 00:46:05;;;;;;;8.95;6.95;;;;;;;17.66;85.15;100180.41;1675104;85;21076;-69
2021/05/28 00:48:33;;;;;;;10.98;7.30;;;;;;;17.66;85.07;100172.09;1675003;85;21215;-70
2021/05/28 00:51:00;;;;;;;10.58;7.80;;;;;;;17.66;85.02;100172.09;1675126;85;21085;-70
2021/05/28 00:53:28;;;;;;;10.28;8.15;;;;;;;17.61;84.97;100176.99;1675040;85;21104;-71
2021/05/28 00:55:56;;;;;;;10.60;7.83;;;;;;;17.59;85.18;100167.25;1651763;85;21144;-70
2021/05/28 00:58:23;;;;;;;17.32;7.70;;;;;;;17.60;85.35;100167.00;1675043;85;21076;-70
2021/05/28 01:00:50;;;;;;;8.58;7.05;;;;;;;17.59;85.31;100171.41;1673394;85;21084;-70
2021/05/28 01:03:19;;;;;;;9.30;7.00;;;;;;;17.59;85.39;100170.02;1673163;85;21960;-71
2021/05/28 01:05:46;;;;;;;9.15;7.58;;;;;;;17.58;85.31;100172.50;1675054;84;21894;-70
2021/05/28 01:08:14;;;;;;;9.38;7.33;;;;;;;17.54;85.31;100167.97;1675001;85;21128;-70
2021/05/28 01:10:42;;;;;;;10.60;7.47;;;;;;;17.52;85.50;100169.30;1674961;85;21116;-70
2021/05/28 01:13:11;;;;;;;11.97;7.90;;;;;;;17.52;85.77;100172.08;1675095;85;21066;-70
2021/05/28 01:15:38;;;;;;;9.23;7.67;;;;;;;17.55;85.91;100170.19;1675084;85;21125;-71
2021/05/28 01:18:08;;;;;;;9.95;7.40;;;;;;;17.57;85.95;100172.20;1675070;85;21034;-70
2021/05/28 01:20:36;;;;;;;12.35;7.75;;;;;;;17.59;85.93;100170.02;1675072;85;21449;-70
2021/05/28 01:23:04;;;;;;;9.65;7.60;;;;;;;17.60;85.90;100165.62;1675141;85;21083;-71
2021/05/28 01:25:31;;;;;;;11.65;8.30;;;;;;;17.64;85.65;100168.73;1675059;85;21081;-71
2021/05/28 01:27:59;;;;;;;9.20;7.70;;;;;;;17.62;85.52;100168.98;1675023;85;21077;-70
2021/05/28 01:30:28;;;;;;;10.23;8.68;;;;;;;17.61;85.50;100167.84;1675001;85;21069;-70
2021/05/28 01:32:55;;;;;;;9.13;7.87;;;;;;;17.62;85.52;100169.52;1675007;85;21112;-70
2021/05/28 01:35:23;;;;;;;9.78;8.00;;;;;;;17.60;85.47;100167.00;1675013;85;21547;-72
2021/05/28 01:37:50;;;;;;;10.20;8.35;;;;;;;17.60;85.38;100164.77;1675036;85;21112;-71
2021/05/28 01:40:18;;;;;;;9.38;8.05;;;;;;;17.57;85.50;100166.66;1675085;85;21077;-71
2021/05/28 01:42:47;;;;;;;11.50;8.58;;;;;;;17.57;85.68;100165.27;1674991;85;21226;-70
2021/05/28 01:45:15;;;;;;;12.10;8.78;;;;;;;17.55;85.83;100162.72;1675013;85;21105;-70
2021/05/28 01:47:42;;;;;;;11.53;8.78;;;;;;;17.58;85.86;100169.73;1675065;85;21228;-70
2021/05/28 01:50:11;;;;;;;11.97;8.55;;;;;;;17.58;85.92;100166.95;1675069;85;21069;-71
2021/05/28 01:52:38;;;;;;;11.10;8.60;;;;;;;17.56;85.76;100167.20;1675058;85;21359;-70
2021/05/28 01:55:09;;;;;;;11.63;8.73;;;;;;;17.54;85.73;100164.36;1675052;85;21104;-70
2021/05/28 01:57:37;;;;;;;10.53;8.00;;;;;;;17.53;85.81;100175.14;1653736;85;21092;-70
2021/05/28 02:00:11;;;;;;;9.85;8.60;;;;;;;17.51;85.87;100175.39;1675029;85;21104;-70
2021/05/28 02:02:38;;;;;;;10.80;8.90;;;;;;;17.52;86.03;100168.77;1675061;85;21230;-71
2021/05/28 02:05:08;;;;;;;11.57;8.80;;;;;;;17.54;85.98;100172.13;1675103;84;21172;-71
2021/05/28 02:07:36;;;;;;;10.55;8.35;;;;;;;17.54;85.95;100169.35;1673987;85;21803;-70
2021/05/28 02:10:05;;;;;;;9.38;8.15;;;;;;;17.57;85.82;100173.59;1684893;85;21072;-72
2021/05/28 02:12:33;;;;;;;11.90;7.72;;;;;;;17.56;85.60;100171.36;1684897;85;21341;-69
2021/05/28 02:15:01;;;;;;;11.78;8.45;;;;;;;17.53;85.37;100177.37;1682917;85;21087;-70
2021/05/28 02:17:29;;;;;;;10.50;8.55;;;;;;;17.48;85.31;100169.51;1682889;85;21437;-70
2021/05/28 02:19:58;;;;;;;10.38;8.53;;;;;;;17.44;85.44;100170.00;1682977;85;21132;-71
2021/05/28 02:22:25;;;;;;;9.83;8.83;;;;;;;17.43;85.68;100168.33;1684877;85;21099;-70
2021/05/28 02:24:52;;;;;;;14.73;10.03;;;;;;;17.46;85.85;100178.06;1683404;85;21894;-70
2021/05/28 02:27:21;;;;;;;11.35;8.48;;;;;;;17.48;86.06;100168.97;1684798;85;21231;-70
2021/05/28 02:29:50;;;;;;;10.93;9.10;;;;;;;17.51;86.00;100163.47;1684649;85;21112;-70
2021/05/28 02:32:17;;;;;;;11.83;9.05;;;;;;;17.53;85.92;100169.60;1684879;85;21049;-71
2021/05/28 02:34:44;;;;;;;15.40;11.38;;;;;;;17.54;85.95;100169.90;1684864;85;21111;-70
2021/05/28 02:37:11;;;;;;;14.55;10.35;;;;;;;17.55;85.99;100164.66;1684933;85;21120;-71
2021/05/28 02:39:38;;;;;;;15.72;11.48;;;;;;;17.57;86.08;100163.89;1684822;85;21346;-69
2021/05/28 02:42:07;;;;;;;15.45;11.40;;;;;;;17.56;86.21;100154.73;1684831;85;21080;-70
2021/05/28 02:44:34;;;;;;;15.55;10.90;;;;;;;17.58;86.31;100151.72;1684849;85;21211;-69
2021/05/28 02:47:02;;;;;;;13.05;9.75;;;;;;;17.59;86.47;100150.62;1684867;85;21295;-71
2021/05/28 02:49:29;;;;;;;13.15;9.35;;;;;;;17.63;86.38;100151.27;1684818;85;21860;-70
2021/05/28 02:51:56;;;;;;;12.28;9.40;;;;;;;17.65;86.28;100144.92;1682947;85;21754;-71
2021/05/28 02:54:25;;;;;;;13.20;10.80;;;;;;;17.66;86.25;100142.99;1684904;85;21091;-70
2021/05/28 02:56:52;;;;;;;15.88;10.95;;;;;;;17.67;86.16;100147.48;1684802;85;21100;-71
2021/05/28 02:59:20;;;;;;;12.20;9.98;;;;;;;17.65;86.21;100146.31;1684861;85;21145;-70
2021/05/28 03:01:47;;;;;;;13.38;10.48;;;;;;;17.67;86.31;100137.23;1684799;85;21032;-70
2021/05/28 03:04:15;;;;;;;12.10;9.50;;;;;;;17.70;86.35;100134.51;1684821;85;21560;-71
2021/05/28 03:06:44;;;;;;;14.10;10.28;;;;;;;17.73;86.34;100139.55;1684827;83;21398;-69
2021/05/28 03:09:12;;;;;;;14.35;11.18;;;;;;;17.72;86.28;100139.25;1678900;85;21214;-70
2021/05/28 03:11:41;;;;;;;14.95;11.75;;;;;;;17.74;86.34;100144.00;1674924;85;21117;-69
2021/05/28 03:14:10;;;;;;;15.38;11.48;;;;;;;17.77;86.29;100139.88;1674984;85;21096;-71
2021/05/28 03:16:37;;;;;;;15.80;11.10;;;;;;;17.78;86.14;100140.18;1673186;85;21097;-71
2021/05/28 03:19:08;;;;;;;15.70;11.63;;;;;;;17.77;86.01;100137.95;1675016;85;21483;-71
2021/05/28 03:24:03;;;;;;;13.00;10.68;;;;;;;17.80;85.99;100143.54;1675044;85;21077;-69
2021/05/28 03:26:31;;;;;;;17.45;11.45;;;;;;;17.80;85.99;100137.99;1673092;85;21318;-70
2021/05/28 03:28:58;;;;;;;15.90;11.22;;;;;;;17.82;85.95;100144.12;1673144;85;21348;-71
2021/05/28 03:31:26;;;;;;;16.25;11.83;;;;;;;17.81;85.97;100137.74;1674154;85;21732;-70
2021/05/28 03:33:54;;;;;;;14.68;11.18;;;;;;;17.82;85.94;100140.81;1673194;85;21309;-69
2021/05/28 03:36:21;;;;;;;14.63;10.13;;;;;;;17.82;85.95;100144.97;1673157;85;21072;-69
2021/05/28 03:38:49;;;;;;;11.68;9.60;;;;;;;17.82;85.95;100146.35;1673282;85;21104;-69
2021/05/28 03:41:17;;;;;;;13.80;10.40;;;;;;;17.80;85.91;100148.53;1673095;85;21094;-69
2021/05/28 03:43:44;;;;;;;14.55;9.83;;;;;;;17.80;86.03;100146.31;1673205;85;21088;-70
2021/05/28 03:46:12;;;;;;;13.55;10.85;;;;;;;17.79;86.17;100144.09;1673075;85;21089;-69
2021/05/28 03:48:40;;;;;;;15.95;11.35;;;;;;;17.80;86.38;100151.30;1673002;85;21345;-69
2021/05/28 03:51:07;;;;;;;14.75;11.05;;;;;;;17.84;86.48;100155.80;1672937;85;21316;-69
2021/05/28 03:53:35;;;;;;;14.65;11.12;;;;;;;17.84;86.41;100150.26;1672897;85;21053;-70
2021/05/28 03:56:02;;;;;;;12.05;9.93;;;;;;;17.85;86.48;100150.01;1673066;85;21112;-71
2021/05/28 03:58:30;;;;;;;12.98;9.78;;;;;;;17.86;86.24;100148.08;1673055;85;21041;-70
2021/05/28 04:00:57;;;;;;;12.35;8.83;;;;;;;17.82;86.08;100150.52;1673079;85;21087;-69
2021/05/28 04:03:24;;;;;;;12.70;9.85;;;;;;;17.78;86.13;100154.88;1673069;85;21072;-71
2021/05/28 04:05:52;;;;;;;16.30;11.48;;;;;;;17.76;86.35;100152.06;1672999;84;21152;-69
2021/05/28 04:08:19;;;;;;;13.03;10.63;;;;;;;17.78;86.66;100156.27;1673670;85;21144;-69
2021/05/28 04:10:47;;;;;;;16.85;11.03;;;;;;;17.81;86.88;100157.14;1682823;85;21119;-69
2021/05/28 04:13:14;;;;;;;13.83;9.53;;;;;;;17.83;86.85;100153.58;1682887;85;21076;-69
2021/05/28 04:15:42;;;;;;;10.30;8.35;;;;;;;17.85;86.78;100162.48;1682816;85;21364;-69
2021/05/28 04:18:09;;;;;;;9.45;7.42;;;;;;;17.86;86.61;100161.39;1682843;85;21072;-69
2021/05/28 04:20:37;;;;;;;13.10;7.97;;;;;;;17.86;86.44;100168.86;1683051;85;21265;-69
2021/05/28 04:23:05;;;;;;;9.48;7.80;;;;;;;17.86;86.51;100160.00;1682779;85;21926;-69
2021/05/28 04:25:32;;;;;;;7.85;6.50;;;;;;;17.88;86.35;100156.44;1682824;85;21833;-70
2021/05/28 04:28:05;;;;;;;10.25;7.12;;;;;;;17.89;85.97;100165.05;1682818;85;21852;-69
2021/05/28 04:30:33;;;;;;;10.15;6.80;;;;;;;17.91;85.61;100165.63;1682790;85;21095;-69
2021/05/28 04:33:00;;;;;;;11.10;7.80;;;;;;;17.95;85.18;100164.58;1682845;85;21124;-68
2021/05/28 04:35:28;;;;;;;9.70;6.85;;;;;;;17.98;84.86;100164.91;1682696;85;21327;-68
2021/05/28 04:37:55;;;;;;;9.83;7.42;;;;;;;18.01;84.73;100167.19;1682858;85;21816;-69
2021/05/28 04:40:22;;;;;;;11.95;8.95;;;;;;;18.03;84.75;100160.84;1682787;85;21060;-69
2021/05/28 04:42:49;;;;;;;16.80;11.53;;;;;;;18.09;84.69;100169.24;1682749;85;21104;-69
2021/05/28 04:45:17;;;;;;;11.40;9.13;;;;;;;18.11;84.50;100165.13;1682780;85;21261;-69
2021/05/28 04:47:44;;;;;;;13.93;9.60;;;;;;;18.14;84.21;100160.45;1682709;85;21350;-69
2021/05/28 04:50:12;;;;;;;14.93;10.00;;;;;;;18.12;84.11;100159.03;1682610;85;21275;-70
2021/05/28 04:52:41;;;;;;;10.90;7.72;;;;;;;18.12;84.26;100159.87;1682666;85;21056;-70
2021/05/28 04:55:10;;;;;;;13.48;9.08;;;;;;;18.16;84.36;100158.81;1684444;85;21351;-70
2021/05/28 04:57:38;;;;;;;10.20;8.18;;;;;;;18.18;84.23;100152.47;1684450;85;21375;-70
2021/05/28 05:00:07;;;;;;;15.58;9.80;;;;;;;18.22;84.30;100160.06;1684502;85;21187;-71
2021/05/28 05:02:34;;;;;;;11.12;7.35;;;;;;;18.25;84.13;100155.39;1682645;85;21781;-70
2021/05/28 05:05:01;;;;;;;10.88;7.83;;;;;;;18.25;84.00;100158.71;1682662;83;21928;-69
2021/05/28 05:07:28;;;;;;;11.83;8.85;;;;;;;18.25;84.03;100154.01;1682949;85;21077;-70
2021/05/28 05:09:56;;;;;;;12.35;8.83;;;;;;;18.28;84.19;100154.05;1676784;85;21168;-70
2021/05/28 05:12:24;;;;;;;12.70;8.15;;;;;;;18.30;84.25;100151.31;1672988;85;21061;-69
2021/05/28 05:14:51;;;;;;;16.73;10.90;;;;;;;18.33;84.29;100152.73;1672953;85;21347;-70
2021/05/28 05:17:18;;;;;;;12.82;9.95;;;;;;;18.36;84.03;100149.45;1672901;85;21288;-71
2021/05/28 05:19:45;;;;;;;15.80;10.48;;;;;;;18.40;83.90;100149.23;1674607;85;21423;-71
2021/05/28 05:22:13;;;;;;;16.35;10.70;;;;;;;18.45;83.59;100156.23;1672967;85;21242;-69
2021/05/28 05:24:40;;;;;;;14.47;11.10;;;;;;;18.46;83.34;100156.53;1672962;85;21863;-70
2021/05/28 05:27:07;;;;;;;18.48;12.33;;;;;;;18.50;83.25;100159.63;1672921;85;21696;-69
2021/05/28 05:29:36;;;;;;;17.92;12.47;;;;;;;18.53;83.02;100161.34;1672930;85;21061;-70
2021/05/28 05:32:03;;;;;;;14.38;10.72;;;;;;;18.51;82.79;100167.70;1672993;85;21120;-70
2021/05/28 05:34:31;;;;;;;16.82;11.60;;;;;;;18.51;82.66;100171.86;1673003;85;21100;-69
2021/05/28 05:37:04;;;;;;;14.85;10.88;;;;;;;18.50;82.43;100165.19;1673016;85;21100;-70
2021/05/28 05:39:31;;;;;;;16.75;11.88;;;;;;;18.50;82.60;100160.47;1672413;85;21076;-69
2021/05/28 05:42:02;;;;;;;17.17;12.35;;;;;;;18.54;83.01;100163.58;1673000;85;21640;-70
2021/05/28 05:44:29;;;;;;;15.43;11.00;;;;;;;18.56;82.90;100161.38;1673040;85;21096;-71
2021/05/28 05:46:56;;;;;;;12.65;10.55;;;;;;;18.54;82.81;100163.58;1674916;85;21796;-70
2021/05/28 05:49:24;;;;;;;12.85;10.45;;;;;;;18.49;83.06;100162.95;1673051;85;21797;-70
2021/05/28 05:51:51;;;;;;;13.38;10.25;;;;;;;18.46;83.30;100165.41;1673019;85;21065;-70
2021/05/28 05:54:19;;;;;;;15.43;10.53;;;;;;;18.45;83.33;100160.95;1672973;85;21108;-68
2021/05/28 05:56:46;;;;;;;16.00;11.93;;;;;;;18.46;83.42;100161.23;1672950;85;21195;-69
2021/05/28 05:59:14;;;;;;;19.87;12.75;;;;;;;18.46;83.33;100157.08;1673191;85;21243;-69
2021/05/28 06:01:42;;;;;;;17.80;12.88;;;;;;;18.49;83.38;100160.19;1673032;85;21089;-69
2021/05/28 06:04:09;;;;;;;26.07;20.88;;;;;;;18.54;82.98;100164.97;1673094;85;21348;-68
2021/05/28 06:06:36;;;;;;;25.05;18.77;;;;;;;18.58;82.66;100161.97;1672933;84;21152;-71
2021/05/28 06:09:04;;;;;;;34.08;26.02;;;;;;;18.62;82.48;100164.00;1672940;85;21061;-69
2021/05/28 06:11:32;;;;;;;19.55;13.53;;;;;;;18.66;82.16;100163.78;1673113;85;21368;-70
2021/05/28 06:13:59;;;;;;;17.17;12.07;;;;;;;18.68;81.62;100161.59;1673136;85;21470;-70
2021/05/28 06:16:27;;;;;;;16.50;11.25;;;;;;;18.69;81.06;100159.66;1673049;85;21124;-69
2021/05/28 06:18:54;;;;;;;18.37;11.78;;;;;;;18.68;80.68;100162.14;1673047;85;21126;-70
2021/05/28 06:21:22;;;;;;;15.32;10.65;;;;;;;18.69;80.49;100159.11;1674920;85;21092;-70
2021/05/28 06:23:49;;;;;;;15.53;11.35;;;;;;;18.72;80.11;100163.30;1674880;85;21350;-70
2021/05/28 06:26:16;;;;;;;15.98;11.05;;;;;;;18.77;79.94;100161.14;1674919;85;21092;-70
2021/05/28 06:28:44;;;;;;;16.55;11.63;;;;;;;18.82;79.71;100161.21;1674989;85;21097;-70
2021/05/28 06:31:11;;;;;;;15.63;10.35;;;;;;;18.85;79.59;100164.31;1673121;85;21081;-69
2021/05/28 06:33:39;;;;;;;14.38;10.40;;;;;;;18.91;79.63;100166.64;1674831;85;21105;-71
2021/05/28 06:36:06;;;;;;;13.75;10.00;;;;;;;18.96;79.33;100165.31;1674907;85;21534;-70
2021/05/28 06:38:34;;;;;;;13.75;10.58;;;;;;;19.01;79.20;100157.05;1674928;85;21674;-70
2021/05/28 06:41:01;;;;;;;13.78;11.15;;;;;;;19.05;78.67;100158.20;1673017;85;21103;-69
2021/05/28 06:43:29;;;;;;;15.53;11.88;;;;;;;19.11;78.52;100154.94;1672978;85;21053;-69
2021/05/28 06:45:56;;;;;;;13.55;9.55;;;;;;;19.18;78.26;100152.25;1672937;85;21133;-72
2021/05/28 06:48:25;;;;;;;14.53;10.03;;;;;;;19.27;77.73;100152.07;1672994;85;21363;-70
2021/05/28 06:50:53;;;;;;;13.45;9.90;;;;;;;19.37;77.10;100154.67;1673088;85;21348;-70
2021/05/28 06:53:20;;;;;;;16.23;11.53;;;;;;;19.45;77.09;100148.64;1673056;85;21773;-71
2021/05/28 06:55:47;;;;;;;15.10;10.13;;;;;;;19.54;76.77;100161.03;1691530;83;21268;-71
2021/05/28 06:58:16;;;;;;;13.70;10.93;;;;;;;19.58;75.68;100147.73;1680827;83;21099;-72
2021/05/28 07:00:44;;;;;;;13.80;10.35;;;;;;;19.64;74.82;100152.78;1673724;84;21075;-69
2021/05/28 07:03:11;;;;;;;17.42;10.50;;;;;;;19.68;74.32;100152.55;1716787;82;21114;-70
2021/05/28 07:05:38;;;;;;;18.00;13.10;;;;;;;19.70;74.23;100145.33;1699356;82;21106;-70
2021/05/28 07:08:05;;;;;;;19.65;14.63;;;;;;;19.77;74.09;100148.18;1698350;82;21043;-69
2021/05/28 07:10:33;;;;;;;26.73;20.25;;;;;;;19.81;74.22;100145.71;1696977;84;21100;-69
2021/05/28 07:13:01;;;;;;;36.42;29.85;;;;;;;19.85;74.52;100147.70;1700131;84;21054;-69
2021/05/28 07:15:28;;;;;;;22.50;16.48;;;;;;;19.91;74.43;100148.02;1696262;84;21842;-70
2021/05/28 07:17:55;;;;;;;22.55;15.00;;;;;;;19.98;73.96;100149.74;1694293;83;21180;-70
2021/05/28 07:20:23;;;;;;;18.02;14.75;;;;;;;20.00;74.17;100148.38;1703658;83;21354;-69
2021/05/28 07:22:50;;;;;;;22.35;15.48;;;;;;;20.00;73.54;100151.70;1699924;82;21384;-69
2021/05/28 07:25:18;;;;;;;21.62;14.25;;;;;;;20.01;73.59;100147.27;1700736;83;21801;-70
2021/05/28 07:27:45;;;;;;;24.60;15.40;;;;;;;20.05;74.05;100142.84;1695635;83;21559;-69
2021/05/28 07:30:14;;;;;;;20.27;13.00;;;;;;;20.13;74.18;100145.13;1694385;83;21275;-70
2021/05/28 07:32:42;;;;;;;21.10;16.07;;;;;;;20.24;73.03;100141.35;1702249;83;21317;-69
2021/05/28 07:35:10;;;;;;;20.40;15.08;;;;;;;20.29;72.73;100145.27;1694618;83;21042;-70
2021/05/28 07:37:38;;;;;;;22.62;16.73;;;;;;;20.34;72.17;100148.09;1701070;82;21258;-69
2021/05/28 07:40:07;;;;;;;18.98;15.53;;;;;;;20.35;72.27;100140.03;1702771;83;21093;-70
2021/05/28 07:42:35;;;;;;;20.85;14.98;;;;;;;20.42;72.52;100134.54;1695098;84;21079;-70
2021/05/28 07:45:04;;;;;;;18.40;15.50;;;;;;;20.54;72.11;100137.11;1696840;83;21471;-71
2021/05/28 07:47:32;;;;;;;21.23;15.48;;;;;;;20.60;70.95;100137.98;1700680;83;21228;-71
2021/05/28 07:50:02;;;;;;;19.77;15.65;;;;;;;20.63;70.41;100131.31;1696877;82;21420;-69
2021/05/28 07:52:30;;;;;;;21.90;16.37;;;;;;;20.68;70.43;100131.89;1701412;84;21101;-71
2021/05/28 07:54:57;;;;;;;17.82;14.13;;;;;;;20.71;70.03;100135.53;1691641;82;21096;-67
2021/05/28 07:57:25;;;;;;;20.23;14.07;;;;;;;20.76;70.38;100128.59;1688922;83;20994;-69
2021/05/28 07:59:52;;;;;;;21.33;14.93;;;;;;;20.82;69.63;100130.32;1685267;83;21039;-69
2021/05/28 08:02:20;;;;;;;21.50;16.95;;;;;;;20.81;68.86;100137.84;1691664;83;21705;-69
2021/05/28 08:04:47;;;;;;;22.62;16.97;;;;;;;20.78;68.54;100127.77;1693985;83;21240;-68
2021/05/28 08:07:15;;;;;;;22.52;17.17;;;;;;;20.72;68.70;100126.91;1689889;82;21060;-71
2021/05/28 08:09:42;;;;;;;19.57;15.10;;;;;;;20.72;69.19;100134.42;1700957;83;21112;-70
2021/05/28 08:12:10;;;;;;;18.35;15.13;;;;;;;20.74;69.08;100127.47;1694424;82;21134;-72
2021/05/28 08:14:39;;;;;;;21.42;16.85;;;;;;;20.76;69.07;100123.86;1681364;82;21092;-73
2021/05/28 08:17:09;;;;;;;23.55;17.07;;;;;;;20.78;69.56;100127.21;1693876;84;21185;-71
2021/05/28 08:19:38;;;;;;;22.48;16.17;;;;;;;20.78;69.42;100122.20;1701720;82;21079;-71
2021/05/28 08:22:06;;;;;;;23.60;17.10;;;;;;;20.81;69.38;100118.90;1701994;84;21219;-73
2021/05/28 08:24:35;;;;;;;31.25;23.02;;;;;;;20.83;69.18;100113.34;1702351;84;21833;-72
2021/05/28 08:27:03;;;;;;;23.98;18.12;;;;;;;20.85;69.22;100108.89;1700276;84;21063;-75
2021/05/28 08:29:30;;;;;;;24.92;19.82;;;;;;;20.87;68.74;100108.90;1700562;84;21096;-76
2021/05/28 08:31:59;;;;;;;25.70;19.60;;;;;;;20.86;68.17;100110.56;1696109;84;21067;-76
2021/05/28 08:34:26;;;;;;;36.13;21.50;;;;;;;20.90;68.31;100108.91;1705693;83;21041;-77
2021/05/28 08:36:56;;;;;;;25.62;18.98;;;;;;;20.94;68.21;100110.59;1699843;83;21060;-72
2021/05/28 08:39:24;;;;;;;31.30;22.95;;;;;;;20.98;68.14;100105.59;1695257;83;21102;-76
2021/05/28 08:41:51;;;;;;;25.82;19.87;;;;;;;20.97;68.24;100103.92;1700680;84;21729;-75
2021/05/28 08:44:24;;;;;;;27.85;21.23;;;;;;;21.04;68.32;100103.11;1699422;84;21080;-75
2021/05/28 08:46:52;;;;;;;28.35;21.55;;;;;;;21.11;67.82;100094.48;1694748;83;21077;-73
2021/05/28 08:49:20;;;;;;;32.38;22.30;;;;;;;21.27;67.85;100094.83;1702271;83;21517;-73
2021/05/28 08:51:48;;;;;;;27.45;21.30;;;;;;;21.42;67.81;100091.23;1700411;82;21059;-72
2021/05/28 08:54:17;;;;;;;26.35;20.82;;;;;;;21.56;66.76;100086.81;1681194;84;21799;-72
2021/05/28 08:56:48;;;;;;;29.23;21.15;;;;;;;21.65;66.25;100085.70;1699812;84;21300;-73
2021/05/28 08:59:17;;;;;;;24.52;19.50;;;;;;;21.75;66.16;100082.36;1679424;84;21168;-72
2021/05/28 09:01:44;;;;;;;23.02;18.75;;;;;;;21.89;65.37;100087.38;1704561;83;21635;-71
2021/05/28 09:04:12;;;;;;;24.90;19.73;;;;;;;22.00;65.05;100091.27;1697551;84;21085;-71
2021/05/28 09:06:45;;;;;;;24.80;21.00;;;;;;;22.12;64.18;100087.68;1693083;84;21660;-73
2021/05/28 09:09:23;;;;;;;24.92;19.57;;;;;;;22.21;62.93;100089.34;1699701;84;21596;-71
2021/05/28 09:12:05;;;;;;;27.20;20.48;;;;;;;22.26;62.02;100080.95;1701825;83;21104;-73
2021/05/28 09:14:41;;;;;;;26.23;20.45;;;;;;;22.28;62.13;100080.11;1689466;84;21748;-72
2021/05/28 09:17:10;;;;;;;24.52;18.42;;;;;;;22.33;62.45;100082.89;1700540;84;21262;-76
2021/05/28 09:19:38;;;;;;;25.95;21.07;;;;;;;22.36;62.44;100084.28;1702685;84;21153;-76
2021/05/28 09:22:12;;;;;;;26.57;20.40;;;;;;;22.44;62.56;100083.14;1702039;83;21052;-76
2021/05/28 09:24:44;;;;;;;25.48;20.65;;;;;;;22.49;62.52;100078.66;1695633;84;21543;-78
2021/05/28 09:27:27;;;;;;;23.35;20.23;;;;;;;22.50;61.54;100076.14;1701076;83;21523;-78
2021/05/28 09:30:00;;;;;;;20.17;17.05;;;;;;;22.46;61.40;100077.27;1701224;84;21100;-75
2021/05/28 09:32:29;;;;;;;26.15;18.23;;;;;;;22.46;61.59;100081.45;1698620;82;21172;-75
2021/05/28 09:34:56;;;;;;;20.77;17.20;;;;;;;22.50;61.58;100078.94;1701387;84;21510;-76
2021/05/28 09:37:43;;;;;;;20.52;16.27;;;;;;;22.59;60.96;100075.27;1702547;84;21318;-73
2021/05/28 09:40:31;;;;;;;19.30;15.13;;;;;;;22.70;60.01;100063.49;1702000;83;21104;-74
2021/05/28 09:43:00;;;;;;;;;;;;;;;22.79;58.93;100070.19;1696871;83;21091;-77
2021/05/28 09:45:37;;;;;;;17.75;14.07;;;;;;;22.89;58.07;100059.55;1700598;83;20212;-74
2021/05/28 09:48:16;;;;;;;19.02;15.05;;;;;;;22.94;57.77;100056.17;1699771;84;21073;-77
2021/05/28 09:50:45;;;;;;;15.95;13.38;;;;;;;23.01;57.51;100058.65;1700336;84;21502;-80
2021/05/28 09:53:40;;;;;;;18.27;14.47;;;;;;;23.02;56.42;100044.95;1694624;83;21124;-75
2021/05/28 09:56:27;;;;;;;21.82;17.70;;;;;;;23.05;56.84;100049.96;1695338;84;21093;-71
2021/05/28 09:59:04;;;;;;;;;;;;;;;23.14;57.25;100051.58;1704090;83;21753;-80
2021/05/28 10:01:37;;;;;;;27.07;20.55;;;;;;;23.19;58.59;100045.95;1702580;84;20289;-75
2021/05/28 10:04:09;;;;;;;22.42;17.62;;;;;;;23.30;58.78;100042.80;1702716;84;21061;-78
2021/05/28 10:06:40;;;;;;;22.58;17.62;;;;;;;23.46;58.39;100041.31;1698996;83;21124;-74
2021/05/28 10:09:12;;;;;;;27.27;19.50;;;;;;;23.54;57.72;100028.94;1703528;83;21123;-73
2021/05/28 10:11:40;;;;;;;27.13;17.60;;;;;;;23.67;57.61;100032.49;1710331;82;21221;-73
2021/05/28 10:14:08;;;;;;;23.73;17.48;;;;;;;23.86;56.88;100039.59;1718429;82;21361;-75
2021/05/28 10:16:39;;;;;;;23.57;17.15;;;;;;;23.98;56.39;100030.23;1703990;82;21089;-75
2021/05/28 10:19:06;;;;;;;26.12;19.02;;;;;;;24.12;56.85;100037.96;1703050;83;21105;-75
2021/05/28 10:21:34;;;;;;;22.55;15.55;;;;;;;24.24;56.62;100032.22;1700854;83;21311;-77
2021/05/28 10:24:04;;;;;;;24.45;16.35;;;;;;;24.41;56.23;100025.34;1702464;84;21371;-77
2021/05/28 10:26:37;;;;;;;22.35;16.65;;;;;;;24.57;55.11;100029.05;1701445;84;21739;-77
2021/05/28 10:29:03;;;;;;;21.73;16.80;;;;;;;24.69;54.57;100023.59;1700963;83;21099;-77
2021/05/28 10:31:58;;;;;;;25.35;16.97;;;;;;;24.73;54.18;100014.31;1705473;83;21334;-78
2021/05/28 10:34:27;;;;;;;20.57;15.78;;;;;;;24.74;54.59;100018.78;1701714;84;21072;-72
2021/05/28 10:36:57;;;;;;;19.42;15.95;;;;;;;24.73;53.84;100018.51;1703339;83;21095;-70
2021/05/28 10:39:26;;;;;;;18.57;15.63;;;;;;;24.72;53.16;100017.41;1699666;83;21194;-69
2021/05/28 10:42:10;;;;;;;17.95;14.60;;;;;;;24.61;53.09;100009.67;1699252;84;21446;-71
2021/05/28 10:44:43;;;;;;;19.95;15.00;;;;;;;24.52;52.85;100010.08;1681978;84;21763;-73
2021/05/28 10:47:19;;;;;;;21.25;16.75;;;;;;;24.38;53.23;100000.73;1694096;84;21080;-70
2021/05/28 10:49:52;;;;;;;22.60;16.02;;;;;;;24.34;54.30;100004.70;1710137;83;21076;-72
2021/05/28 10:52:32;;;;;;;17.75;14.25;;;;;;;24.31;54.03;100000.53;1703851;83;21115;-70
2021/05/28 10:55:09;;;;;;;20.00;13.95;;;;;;;24.20;53.84;99995.31;1703845;83;21170;-72
2021/05/28 10:57:50;;;;;;;19.02;14.87;;;;;;;24.08;53.67;99996.30;1698972;83;21037;-74
2021/05/28 11:00:27;;;;;;;20.92;15.03;;;;;;;24.02;54.21;99995.48;1697057;83;21857;-74
2021/05/28 11:02:59;;;;;;;17.65;14.23;;;;;;;23.97;53.81;99996.94;1709579;83;21179;-73
2021/05/28 11:05:42;;;;;;;22.02;15.65;;;;;;;23.88;54.29;99986.13;1699736;84;21138;-73
2021/05/28 11:08:45;;;;;;;19.35;15.20;;;;;;;23.88;54.65;99980.53;1699940;84;21552;-71
2021/05/28 11:11:44;;;;;;;20.77;15.58;;;;;;;24.05;54.89;99975.30;1703457;83;21099;-75
2021/05/28 11:14:19;;;;;;;19.12;15.25;;;;;;;24.22;53.85;99972.89;1709354;83;21760;-76
2021/05/28 11:17:00;;;;;;;19.35;15.45;;;;;;;24.31;53.16;99967.49;1675707;83;21507;-78
2021/05/28 11:19:45;;;;;;;18.75;14.58;;;;;;;24.25;53.11;99954.66;1710594;83;21282;-78
2021/05/28 11:22:16;;;;;;;19.30;14.68;;;;;;;24.16;53.06;99951.69;1712136;83;21049;-80
2021/05/28 11:24:50;;;;;;;20.90;15.70;;;;;;;24.07;52.93;99945.08;1710880;83;21083;-70
2021/05/28 11:27:35;;;;;;;19.35;15.70;;;;;;;24.05;53.25;99947.31;1714375;82;21096;-74